Record high temperature 35.2°C Record low temperature -28.5°C Record high gust 73.6 km/h Record high average 184.8 km/h Record daily rain 78.0 mm Record low windchill -39.6°C Record high barometer 1045.2 hPa Record low barometer 973.0 hPa
Daily high pressure 1013 hPa Daily low pressure 1010 hPa Daily low windchill 5.3°C Daily high heat index 12.6°C Daily high gust speed 17.6 kmh N Daily high average speed 12.9 kmh N
Beaconsfield Home Weather Data WMR-968
LAST READING AT TIME: 11:50 DATE: April 28 2015, time of next update: 11:55
Current WeatherCloudy/Dry Current Temperature 12.6°C (54.7°F), Apparent temp 10.3°C, Apparent temp solar 15.2°C
Maximum Temperature (since midnight)12.6°C at: 11:01 Minimum Temperature (since midnight)5.3°C at: 06:03
Average windspeed (ten minute)5.2 kmh (2.8 kts) Wind Direction (ten minute)SE (136°)
Windchill Temperature 12.6°C Maximum Gust (last hour)10.1 kmh (5.4 kts) at: 10:39
Maximum Gust (since midnight)17.6 kmh (9.5 kts) at: 09:20 Maximum 1 minute average (since midnight)12.9 kmh (7.0 kts) at: 09:19
Rainfall (last hour)0.0 mm Rainfall (since midnight)0.0 mm (0.00 in.)---
Rainfall This month 63.6 mm (2.50 in.) Rainfall To date this year 82.8 mm (3.26 in.)
Maximum rain per minute (last hour)0.0 mm/min Maximum rain per hour (last 6 hours)0.0 mm/hour
Yesterdays rainfall 0.6 mm DewPoint -4.1°C (Wet Bulb :6.3°C )
Humidity 31 %, Humidex 9.6°C Barometer corrected to msl1012 hPa
Pressure change -1 hPa (last hour) Trend (last hour)STEADY
Pressure change (last 12 hours)+3 hPa Pressure change (last 6 hours)+1 hPa
Current Indoor Temp. 22.0°C
Current Indoor Hum. 28%
Current 00:00 hours of sunshine today, current sky: Cloudy
Sunshine hours for the year: 00:00 hrs Sunshine hours for the month: 00:00 hrs
Current evapotranspiration rate 3.2 mm per day. Yesterday's reading 2.8




Weather report/warning/Metars

Montreal / Pierre Elliot Trudeau International Airport, Que, Canada (CYUL) 45-28N 073-45W 36M
Apr 28, 2015 - 11:00 AM EDT / 2015.04.28 1500 UTC
Wind: from the NNE (030 degrees) at 9 MPH (8 KT) (direction variable):0
Visibility: 30 mile(s):0
Sky conditions: mostly cloudy
Temperature: 53 F (12 C)
Dew Point: 37 F (3 C)
Relative Humidity: 54%
Pressure (altimeter): 29.92 in. Hg (1013 hPa)
ob: CYUL 281500Z 03008KT 360V080 30SM BKN045 12/03 A2992 RMK SC6 SLP131
cycle: 15
Sherbrooke, Que., Canada (CYSC) 45-24N 071-53W
Apr 28, 2015 - 11:00 AM EDT / 2015.04.28 1500 UTC
Wind: from the N (350 degrees) at 8 MPH (7 KT) (direction variable):0
Visibility: 9 mile(s):0
Sky conditions: overcast
Temperature: 48 F (9 C)
Dew Point: 32 F (0 C)
Relative Humidity: 53%
Pressure (altimeter): 29.84 in. Hg (1010 hPa)
ob: CYSC 281500Z AUTO 35007KT 310V020 9SM OVC041 09/00 A2984 RMK SLP110
cycle: 15
St Jovite Automatic Weather Reporting System , Canada (CWJT) 46-04N 074-32W
Apr 28, 2015 - 11:00 AM EDT / 2015.04.28 1500 UTC
Wind: from the NNE (030 degrees) at 3 MPH (3 KT):0
Temperature: 57.9 F (14.4 C)
Dew Point: 37.4 F (3.0 C)
Relative Humidity: 46%
Pressure tendency: 0.02 inches (0.6 hPa) lower than three hours ago
ob: CWJT 281500Z AUTO 03003KT 14/03 RMK AO1 SLP132 T01440030 58006
cycle: 15
Ste Anne De Bell 1, Canada (CWVQ) 45-26N 073-56W
Apr 28, 2015 - 11:00 AM EDT / 2015.04.28 1500 UTC
Wind: from the N (350 degrees) at 3 MPH (3 KT):0
Temperature: 52.9 F (11.6 C)
Dew Point: 38.7 F (3.7 C)
Relative Humidity: 58%
Pressure tendency: 0.01 inches (0.2 hPa) lower than three hours ago
ob: CWVQ 281500Z AUTO 35003KT 12/04 RMK AO1 SLP133 T01160037 58002
cycle: 15
Montreal / Mirabel, Canada (CYMX) 45-41N 074-02W
Apr 28, 2015 - 11:00 AM EDT / 2015.04.28 1500 UTC
Wind: from the NNE (030 degrees) at 6 MPH (5 KT) (direction variable):0
Visibility: 45 mile(s):0
Sky conditions: mostly cloudy
Temperature: 53 F (12 C)
Dew Point: 35 F (2 C)
Relative Humidity: 50%
Pressure (altimeter): 29.93 in. Hg (1013 hPa)
ob: CYMX 281500Z 03005KT 360V100 45SM BKN050 12/02 A2993 RMK SC7 SLP135
cycle: 15
L'Acadie, Canada (CWIZ) 45-18N 073-21W
Apr 28, 2015 - 11:00 AM EDT / 2015.04.28 1500 UTC
Wind: from the N (360 degrees) at 6 MPH (5 KT):0
Temperature: 49.1 F (9.5 C)
Dew Point: 39.0 F (3.9 C)
Relative Humidity: 68%
ob: CWIZ 281500Z AUTO 36005KT 10/04 RMK AO1 T00950039
cycle: 15
St Anicet, Canada (CWBZ) 45-07N 074-17W 49M
Apr 28, 2015 - 11:00 AM EDT / 2015.04.28 1500 UTC
Wind: from the ENE (060 degrees) at 8 MPH (7 KT):0
Temperature: 53.4 F (11.9 C)
Dew Point: 37.9 F (3.3 C)
Relative Humidity: 55%
Pressure tendency: 0.00 inches (0.1 hPa) lower than three hours ago
ob: CWBZ 281500Z AUTO 06007KT 12/03 RMK AO1 SLP135 T01190033 58001
cycle: 15
Mount Washington, NH, United States (KMWN) 44-16N 071-18W 1910M
Apr 28, 2015 - 10:50 AM EDT / 2015.04.28 1450 UTC
Wind: from the N (360 degrees) at 33 MPH (29 KT) gusting to 41 MPH (36 KT):0
Visibility: 1/16 mile(s):0
Sky conditions: obscured
Weather: freezing fog
Temperature: 23 F (-5 C)
Windchill: 5 F (-15 C):1
Dew Point: 23 F (-5 C)
Relative Humidity: 100%
ob: KMWN 281450Z 36029G36KT 1/16SM FZFG VV000 M05/M05 RMK VRY LGT ICG SUN DMLY VSBL
cycle: 15
Vancouver International Air-Port, B. C., Canada (CYVR) 49-11N 123-10W 2M
Apr 28, 2015 - 11:00 AM EDT / 2015.04.28 1500 UTC
Wind: from the ENE (070 degrees) at 7 MPH (6 KT):0
Visibility: 20 mile(s):0
Sky conditions: overcast
Temperature: 57 F (14 C)
Dew Point: 51 F (11 C)
Relative Humidity: 82%
Pressure (altimeter): 29.98 in. Hg (1015 hPa)
ob: CYVR 281500Z 07006KT 20SM FEW040 SCT068 BKN091 OVC140 14/11 A2998 RMK SC1AC2AC4AC1 SLP151
cycle: 15



The data is logged at two minute intervals, but there is data recorded every minute.

Use the RELOAD facility on your browser to retrieve the latest data.

Click here for a daily update of the averages/extremes to date for the month

Click here for Real Time Weather



Created by "Weather Display" software version 10.37R Build 51 at this start time/date 17:33 2015-04-23